Time;durP1;ratioP1;P1;durP2;ratioP2;P2;SDS_P1;SDS_P2;PMS_P1;PMS_P2;Temp;Humidity;BMP_temperature;BMP_pressure;BME280_temperature;BME280_humidity;BME280_pressure;Samples;Min_cycle;Max_cycle;Signal;HPM_P1;HPM_P2
2021/07/14 00:02:25;;;;;;;14.38;12.88;;;;;;;23.96;69.01;98995.19;5119381;28;20055;-53
2021/07/14 00:04:50;;;;;;;14.75;13.35;;;;;;;23.91;69.78;99003.63;5119607;28;20066;-53
2021/07/14 00:07:16;;;;;;;15.45;13.95;;;;;;;23.87;70.07;98988.03;5119160;28;20463;-53
2021/07/14 00:09:42;;;;;;;14.25;12.80;;;;;;;23.83;70.29;98990.16;5119245;28;20054;-53
2021/07/14 00:12:10;;;;;;;14.90;13.35;;;;;;;23.75;70.31;98993.50;5119071;28;20437;-53
2021/07/14 00:17:41;;;;;;;13.63;12.35;;;;;;;23.72;70.18;98991.16;5119348;28;20048;-53
2021/07/14 00:22:44;;;;;;;16.80;12.98;;;;;;;23.67;70.21;98992.53;5119188;28;20043;-53
2021/07/14 00:25:11;;;;;;;14.98;13.55;;;;;;;23.66;70.46;98996.16;5118228;28;20433;-53
2021/07/14 00:27:40;;;;;;;15.82;14.30;;;;;;;23.61;70.74;99004.63;5117941;28;20043;-53
2021/07/14 00:30:10;;;;;;;14.95;13.40;;;;;;;23.60;70.72;99004.78;5119056;28;20047;-53
2021/07/14 00:32:36;;;;;;;14.27;12.88;;;;;;;23.55;71.40;99000.66;5118744;28;20437;-53
2021/07/14 00:35:02;;;;;;;14.95;13.43;;;;;;;23.54;70.97;98993.66;5118713;28;20046;-53
2021/07/14 00:37:28;;;;;;;13.32;12.02;;;;;;;23.54;71.13;99001.66;5118662;28;20046;-53
2021/07/14 00:39:56;;;;;;;15.25;13.85;;;;;;;23.50;71.64;98988.75;5118800;28;20043;-53
2021/07/14 00:42:25;;;;;;;15.15;13.75;;;;;;;23.49;71.59;98998.56;5118810;28;20044;-53
2021/07/14 00:44:51;;;;;;;16.13;14.25;;;;;;;23.43;72.08;98990.25;5119075;28;20061;-53
2021/07/14 00:47:25;;;;;;;17.50;14.57;;;;;;;23.42;72.17;98992.09;5118398;28;20055;-53
2021/07/14 00:49:51;;;;;;;17.27;15.50;;;;;;;23.32;73.44;98986.75;5118705;28;20173;-53
2021/07/14 00:52:17;;;;;;;16.27;14.43;;;;;;;23.37;72.54;98982.78;5117418;28;20047;-53
2021/07/14 00:54:43;;;;;;;16.10;14.45;;;;;;;23.41;72.61;98992.25;5118356;28;20047;-53
2021/07/14 00:57:08;;;;;;;18.23;15.82;;;;;;;23.36;72.83;98994.47;5117662;28;20044;-53
2021/07/14 00:59:34;;;;;;;15.48;13.95;;;;;;;23.37;72.74;99005.03;5117259;28;20044;-53
2021/07/14 01:02:01;;;;;;;15.75;14.13;;;;;;;23.36;72.65;99003.31;5117953;28;20093;-53
2021/07/14 01:04:29;;;;;;;14.95;13.50;;;;;;;23.35;72.50;98996.31;5117200;28;20456;-53
2021/07/14 01:07:00;;;;;;;18.23;16.42;;;;;;;23.35;72.72;98998.97;5117451;28;20055;-53
2021/07/14 01:09:29;;;;;;;14.27;12.88;;;;;;;23.39;72.37;99020.91;5117446;28;20048;-53
2021/07/14 01:11:56;;;;;;;15.52;13.52;;;;;;;23.37;72.46;99013.06;5100325;28;20432;-53
2021/07/14 01:14:25;;;;;;;15.27;13.05;;;;;;;23.37;72.66;99005.03;5100444;28;20069;-53
2021/07/14 01:16:57;;;;;;;15.60;12.95;;;;;;;23.37;72.44;98997.03;5117289;28;20047;-54
2021/07/14 01:19:38;;;;;;;15.68;14.13;;;;;;;23.32;72.44;98999.25;5117387;28;20042;-53
2021/07/14 01:22:45;;;;;;;16.65;14.40;;;;;;;23.30;72.49;98993.19;5116948;28;20043;-53
2021/07/14 01:25:50;;;;;;;15.02;13.63;;;;;;;23.23;73.21;98994.75;5107468;28;20047;-53
2021/07/14 01:28:16;;;;;;;15.55;13.93;;;;;;;23.14;73.39;98993.75;5118026;28;20440;-53
2021/07/14 01:30:42;;;;;;;15.13;13.68;;;;;;;23.13;73.12;98994.72;5116973;28;20051;-53
2021/07/14 01:33:08;;;;;;;16.98;14.77;;;;;;;23.08;73.91;98996.97;5116977;28;20441;-53
2021/07/14 01:35:34;;;;;;;17.58;15.63;;;;;;;23.02;74.30;98981.50;5116373;28;20048;-53
2021/07/14 01:38:00;;;;;;;15.88;14.25;;;;;;;23.07;73.71;98996.13;5099799;28;20075;-53
2021/07/14 01:40:26;;;;;;;20.45;15.70;;;;;;;23.05;73.92;98994.59;5116515;28;20134;-53
2021/07/14 01:42:56;;;;;;;15.75;14.25;;;;;;;23.03;74.09;98988.53;5116728;28;20048;-53
2021/07/14 01:45:29;;;;;;;15.30;13.82;;;;;;;23.03;74.32;98985.84;5116450;28;20047;-53
2021/07/14 01:47:55;;;;;;;15.05;13.43;;;;;;;23.00;74.08;98981.63;5116738;28;20047;-54
2021/07/14 01:50:21;;;;;;;17.33;15.68;;;;;;;22.99;74.18;98982.63;5116618;28;20533;-53
2021/07/14 01:52:47;;;;;;;18.23;15.90;;;;;;;22.98;74.75;98990.78;5082818;28;20051;-53
2021/07/14 01:55:13;;;;;;;19.55;15.98;;;;;;;22.91;74.66;98978.91;5116798;28;20066;-53
2021/07/14 01:57:39;;;;;;;18.90;14.75;;;;;;;22.96;74.14;98993.56;5099337;28;20043;-53
2021/07/14 02:00:08;;;;;;;16.85;15.05;;;;;;;22.98;73.96;98996.97;5116320;28;20047;-53
2021/07/14 02:02:50;;;;;;;16.75;13.68;;;;;;;22.91;74.11;98981.56;5117290;28;20070;-53
2021/07/14 02:05:16;;;;;;;18.15;15.40;;;;;;;22.91;74.07;98989.56;5116795;28;20333;-53
2021/07/14 02:07:42;;;;;;;15.85;14.18;;;;;;;22.91;74.35;98984.25;5099467;28;20052;-53
2021/07/14 02:10:08;;;;;;;16.63;14.98;;;;;;;22.87;74.67;98984.50;5116070;28;20062;-53
2021/07/14 02:12:34;;;;;;;16.92;14.32;;;;;;;22.79;74.70;98976.34;5115918;28;20453;-54
2021/07/14 02:15:04;;;;;;;17.05;15.23;;;;;;;22.84;74.52;98989.28;5115941;28;20040;-53
2021/07/14 02:17:33;;;;;;;17.48;15.65;;;;;;;22.82;74.54;98991.25;5116767;28;20131;-53
2021/07/14 02:20:02;;;;;;;15.68;14.07;;;;;;;22.82;74.29;98993.94;5117267;27;20036;-53
2021/07/14 02:22:28;;;;;;;17.23;15.02;;;;;;;22.77;74.30;98998.81;5116716;28;20035;-53
2021/07/14 02:24:54;;;;;;;17.20;15.45;;;;;;;22.72;74.63;98991.22;5116702;28;20047;-53
2021/07/14 02:27:19;;;;;;;17.55;15.85;;;;;;;22.50;75.11;98962.06;5116621;28;20043;-53
2021/07/14 02:29:47;;;;;;;16.58;14.98;;;;;;;22.66;75.34;98989.09;5116625;28;20095;-53
2021/07/14 02:32:20;;;;;;;18.65;16.73;;;;;;;22.62;75.68;98985.84;5116843;28;20051;-53
2021/07/14 02:34:48;;;;;;;17.40;15.65;;;;;;;22.62;75.43;98985.00;5115650;28;20353;-53
2021/07/14 02:37:17;;;;;;;17.90;16.10;;;;;;;22.58;75.93;98976.41;5116748;28;20130;-53
2021/07/14 02:39:43;;;;;;;17.15;15.43;;;;;;;22.54;76.03;98974.16;5115629;28;20438;-53
2021/07/14 02:42:13;;;;;;;20.05;17.92;;;;;;;22.53;76.36;98964.47;5116489;28;20043;-53
2021/07/14 02:44:40;;;;;;;19.05;17.02;;;;;;;22.49;76.72;98979.03;5115623;28;20039;-53
2021/07/14 02:47:06;;;;;;;17.75;16.05;;;;;;;22.45;76.66;98983.78;5115684;28;20047;-53
2021/07/14 02:49:32;;;;;;;18.48;16.58;;;;;;;22.44;76.92;98978.63;5120772;28;20044;-53
2021/07/14 02:51:58;;;;;;;18.27;16.42;;;;;;;22.44;76.65;98979.44;5120081;28;20070;-53
2021/07/14 02:54:26;;;;;;;19.52;17.48;;;;;;;22.40;77.48;98983.38;5119764;28;20040;-53
2021/07/14 02:57:02;;;;;;;19.70;17.23;;;;;;;22.44;76.91;98983.94;5119675;28;20051;-53
2021/07/14 02:59:29;;;;;;;18.83;16.15;;;;;;;22.43;76.91;98984.94;5104024;28;20055;-53
2021/07/14 03:01:55;;;;;;;16.85;15.02;;;;;;;22.45;77.02;98989.13;5119760;28;20055;-53
2021/07/14 03:04:23;;;;;;;19.27;16.73;;;;;;;22.47;77.00;98978.34;5120715;28;20051;-53
2021/07/14 03:06:49;;;;;;;17.60;15.60;;;;;;;22.48;76.80;98980.88;5102891;28;20047;-53
2021/07/14 03:09:15;;;;;;;19.42;16.17;;;;;;;22.49;76.44;98971.91;5119411;28;20043;-53
2021/07/14 03:11:42;;;;;;;18.15;16.35;;;;;;;22.52;76.17;98974.31;5120583;28;20048;-53
2021/07/14 03:14:11;;;;;;;18.85;16.88;;;;;;;22.54;76.38;98974.16;5120255;28;20061;-53
2021/07/14 03:16:37;;;;;;;17.52;14.32;;;;;;;22.47;76.47;98971.19;5102824;28;20100;-53
2021/07/14 03:19:03;;;;;;;16.95;15.10;;;;;;;22.47;77.09;98973.00;5119513;28;20071;-53
2021/07/14 03:21:30;;;;;;;18.92;16.60;;;;;;;22.47;76.55;98973.00;5119539;28;20116;-53
2021/07/14 03:23:58;;;;;;;17.90;16.17;;;;;;;22.50;76.56;98973.59;5119492;28;20047;-53
2021/07/14 03:26:23;;;;;;;21.77;17.52;;;;;;;22.45;77.00;98965.13;5119424;28;20057;-53
2021/07/14 03:28:49;;;;;;;18.77;16.77;;;;;;;22.44;77.04;98970.59;5119088;28;20047;-53
2021/07/14 03:31:15;;;;;;;18.38;16.38;;;;;;;22.43;77.02;98964.44;5119344;28;20062;-53
2021/07/14 03:33:41;;;;;;;21.83;18.40;;;;;;;22.39;77.84;98961.19;5119061;28;20353;-53
2021/07/14 03:36:07;;;;;;;21.85;19.60;;;;;;;22.37;78.22;98963.13;5119255;28;20058;-53
2021/07/14 03:38:33;;;;;;;19.83;17.83;;;;;;;22.33;78.19;98961.72;5118925;28;20142;-53
2021/07/14 03:40:59;;;;;;;19.98;18.00;;;;;;;22.45;77.99;98973.13;5102288;28;20063;-53
2021/07/14 03:43:25;;;;;;;18.30;16.33;;;;;;;22.49;77.87;98969.22;5119132;28;20126;-53
2021/07/14 03:45:52;;;;;;;17.70;15.50;;;;;;;22.54;77.49;98984.84;5119958;28;20052;-53
2021/07/14 03:48:18;;;;;;;17.88;16.08;;;;;;;22.60;77.57;98976.28;5102133;28;20100;-53
2021/07/14 03:50:48;;;;;;;17.98;16.08;;;;;;;22.66;77.02;98978.44;5118937;28;20047;-53
2021/07/14 03:53:18;;;;;;;17.60;15.32;;;;;;;22.74;77.27;98989.25;5118632;28;20055;-53
2021/07/14 03:55:47;;;;;;;17.20;15.48;;;;;;;22.81;76.93;98987.75;5118949;28;20048;-53
2021/07/14 03:58:13;;;;;;;15.77;13.85;;;;;;;22.89;76.71;98999.56;5118316;28;20047;-53
2021/07/14 04:00:39;;;;;;;16.40;14.90;;;;;;;22.96;76.45;98996.25;5119358;28;20472;-53
2021/07/14 04:03:06;;;;;;;17.30;15.07;;;;;;;23.03;76.26;99000.03;5119509;28;20126;-53
2021/07/14 04:05:32;;;;;;;17.05;15.35;;;;;;;23.08;76.25;98995.16;5119542;28;20075;-53
2021/07/14 04:07:58;;;;;;;19.60;15.80;;;;;;;23.15;76.26;98990.09;5118394;28;20040;-53
2021/07/14 04:10:23;;;;;;;17.35;15.55;;;;;;;23.22;76.10;98993.91;5119486;28;20054;-53
2021/07/14 04:12:49;;;;;;;18.10;16.30;;;;;;;23.29;75.95;98989.69;5119129;28;20077;-53
2021/07/14 04:15:15;;;;;;;18.83;16.83;;;;;;;23.41;75.62;98992.25;5119061;28;20043;-53
2021/07/14 04:17:41;;;;;;;19.98;17.92;;;;;;;23.48;75.40;98982.69;5119338;28;20075;-53
2021/07/14 04:20:07;;;;;;;18.17;15.82;;;;;;;23.55;75.20;98987.31;5119168;28;20039;-53
2021/07/14 04:22:33;;;;;;;16.10;14.40;;;;;;;23.67;75.03;98981.84;5119230;28;20052;-53
2021/07/14 04:24:59;;;;;;;20.58;16.13;;;;;;;23.79;74.81;98984.25;5119714;28;20043;-54
2021/07/14 04:27:26;;;;;;;16.17;14.55;;;;;;;23.90;74.49;98993.94;5101024;28;20047;-53
2021/07/14 04:29:51;;;;;;;18.23;16.48;;;;;;;24.02;74.57;98990.13;5118789;28;20464;-53
2021/07/14 04:32:17;;;;;;;15.75;14.10;;;;;;;24.10;74.07;98976.03;5101265;28;20126;-53
2021/07/14 04:34:43;;;;;;;17.38;15.30;;;;;;;24.28;73.91;98989.50;5118682;28;20108;-53
2021/07/14 04:37:09;;;;;;;15.18;13.60;;;;;;;24.41;73.55;98978.50;5118938;28;20051;-53
2021/07/14 04:39:35;;;;;;;17.73;15.98;;;;;;;24.52;73.06;98983.66;5118462;28;20380;-53
2021/07/14 04:42:01;;;;;;;18.70;15.52;;;;;;;24.58;72.68;98988.44;5118603;28;20044;-53
2021/07/14 04:45:09;;;;;;;17.48;15.45;;;;;;;24.66;72.59;98976.97;5118786;27;20104;-53
2021/07/14 04:47:16;;;;;;;19.98;16.63;;;;;;;24.76;72.26;98972.41;5110228;28;20067;-53
2021/07/14 04:49:42;;;;;;;17.65;15.07;;;;;;;24.82;72.05;98970.97;5118655;28;20043;-53
2021/07/14 04:52:09;;;;;;;17.38;15.57;;;;;;;24.94;71.96;98967.13;5118464;28;20047;-53
2021/07/14 04:54:35;;;;;;;16.80;15.15;;;;;;;25.02;72.07;98971.69;5117129;28;20048;-53
2021/07/14 04:57:01;;;;;;;17.17;15.38;;;;;;;25.13;71.70;98980.41;5118554;28;20062;-53
2021/07/14 04:59:27;;;;;;;18.50;16.38;;;;;;;25.00;71.28;98934.38;5117566;28;20353;-53
2021/07/14 05:01:52;;;;;;;17.60;16.00;;;;;;;25.23;70.67;98969.63;5118417;28;20056;-53
2021/07/14 05:04:18;;;;;;;17.15;15.35;;;;;;;25.26;70.70;98957.78;5117859;28;20457;-53
2021/07/14 05:06:45;;;;;;;17.70;15.90;;;;;;;25.44;70.42;98952.41;5118386;28;20044;-53
2021/07/14 05:09:11;;;;;;;18.50;16.60;;;;;;;25.49;70.15;98956.31;5117983;28;20490;-53
2021/07/14 05:11:37;;;;;;;17.30;14.85;;;;;;;25.59;69.93;98962.44;5117177;28;20047;-53
2021/07/14 05:14:03;;;;;;;17.13;15.30;;;;;;;25.76;69.84;98968.75;5118231;28;20044;-53
2021/07/14 05:16:29;;;;;;;16.48;14.77;;;;;;;25.98;69.53;98970.13;5118178;28;20055;-53
2021/07/14 05:18:55;;;;;;;16.35;14.55;;;;;;;26.13;69.19;98969.53;5118053;28;20043;-53
2021/07/14 05:21:20;;;;;;;17.58;15.77;;;;;;;26.29;68.43;98975.00;5117220;28;20383;-53
2021/07/14 05:23:46;;;;;;;22.17;16.40;;;;;;;26.46;67.67;98971.44;5118013;28;20061;-53
2021/07/14 05:26:12;;;;;;;17.17;15.48;;;;;;;26.60;66.68;98979.91;5100182;28;20112;-53
2021/07/14 05:28:38;;;;;;;15.55;13.57;;;;;;;26.80;66.98;98974.13;5117641;28;20044;-53
2021/07/14 05:31:05;;;;;;;13.98;12.68;;;;;;;27.03;66.67;98976.22;5117866;28;20048;-53
2021/07/14 05:33:31;;;;;;;19.83;15.65;;;;;;;27.22;65.58;98975.13;5117599;28;20116;-53
2021/07/14 05:35:57;;;;;;;16.08;14.48;;;;;;;27.35;64.91;98972.78;5117606;28;20044;-53
2021/07/14 05:38:24;;;;;;;16.77;15.00;;;;;;;27.42;64.55;98976.50;5117345;28;20043;-53
2021/07/14 05:40:50;;;;;;;17.85;15.02;;;;;;;27.57;64.01;98971.31;5117295;28;20092;-53
2021/07/14 05:43:16;;;;;;;15.35;13.27;;;;;;;27.66;64.01;98978.38;5117407;28;20040;-53
2021/07/14 05:45:41;;;;;;;15.45;13.63;;;;;;;27.86;63.94;98986.97;5117629;28;20058;-53
2021/07/14 05:48:08;;;;;;;15.30;13.70;;;;;;;27.95;63.20;98991.34;5117555;28;20035;-53
2021/07/14 05:50:34;;;;;;;17.27;15.15;;;;;;;27.95;62.13;99006.66;5117470;28;20070;-53
2021/07/14 05:52:59;;;;;;;13.82;12.40;;;;;;;28.03;62.75;99011.19;5117426;28;20058;-53
2021/07/14 05:55:25;;;;;;;18.38;15.45;;;;;;;28.03;61.64;99012.00;5117463;28;20043;-53
2021/07/14 05:57:53;;;;;;;17.88;13.75;;;;;;;28.04;64.78;98997.53;5116247;28;20447;-54
2021/07/14 06:00:19;;;;;;;17.73;14.43;;;;;;;28.17;65.89;99010.47;5117251;28;20108;-54
2021/07/14 06:02:45;;;;;;;18.17;14.77;;;;;;;28.31;66.63;99006.28;5116062;28;20051;-53
2021/07/14 06:05:11;;;;;;;17.83;14.20;;;;;;;28.50;65.66;99013.13;5115010;28;20096;-53
2021/07/14 06:07:38;;;;;;;20.27;14.77;;;;;;;28.66;63.48;99007.69;5115295;28;20047;-54
2021/07/14 06:10:06;;;;;;;24.95;14.80;;;;;;;28.85;61.97;99007.28;5115060;28;20047;-54
2021/07/14 06:12:31;;;;;;;15.80;13.50;;;;;;;29.12;62.41;99007.88;5115072;28;20051;-54
2021/07/14 06:14:57;;;;;;;14.15;12.75;;;;;;;29.22;60.63;99005.81;5115074;28;20050;-54
2021/07/14 06:17:23;;;;;;;14.65;12.57;;;;;;;29.27;60.43;99016.88;5115278;28;20431;-54
2021/07/14 06:19:48;;;;;;;15.43;13.00;;;;;;;29.28;59.51;99023.09;5116949;28;20043;-54
2021/07/14 06:22:14;;;;;;;16.00;13.38;;;;;;;29.28;59.65;99034.75;5116809;28;20044;-54
2021/07/14 06:24:40;;;;;;;15.30;12.95;;;;;;;29.39;60.00;99036.19;5116717;28;20059;-54
2021/07/14 06:27:06;;;;;;;14.32;12.60;;;;;;;29.56;60.01;99031.53;5116045;28;20043;-54
2021/07/14 06:29:32;;;;;;;15.38;12.70;;;;;;;29.68;58.90;99030.16;5116601;28;20500;-54
2021/07/14 06:31:58;;;;;;;19.40;13.05;;;;;;;29.84;58.73;99039.97;5115738;28;20051;-54
2021/07/14 06:34:24;;;;;;;15.95;13.30;;;;;;;30.06;58.25;99043.66;5116564;28;20036;-54
2021/07/14 06:36:50;;;;;;;15.98;12.70;;;;;;;30.22;57.36;99035.44;5116776;28;20051;-54
2021/07/14 06:39:16;;;;;;;15.70;12.00;;;;;;;30.42;57.06;99034.91;5116456;28;20108;-54
2021/07/14 06:41:42;;;;;;;14.15;12.35;;;;;;;30.57;56.81;99035.78;5116446;28;20047;-55
2021/07/14 06:44:07;;;;;;;13.75;12.32;;;;;;;30.60;56.51;99050.78;5098936;28;20048;-54
2021/07/14 06:46:33;;;;;;;15.43;12.13;;;;;;;30.51;55.49;99047.31;5116470;28;20131;-54
2021/07/14 06:49:00;;;;;;;13.90;12.57;;;;;;;30.43;55.45;99063.63;5116645;28;20112;-54
2021/07/14 06:51:26;;;;;;;16.00;13.15;;;;;;;30.29;55.70;99062.56;5116698;28;20043;-54
2021/07/14 06:53:52;;;;;;;21.42;12.38;;;;;;;30.23;55.55;99060.59;5116352;28;20051;-54
2021/07/14 06:56:17;;;;;;;15.93;12.02;;;;;;;30.19;56.26;99060.13;5116557;28;20039;-54
2021/07/14 06:58:43;;;;;;;12.40;11.20;;;;;;;30.18;56.72;99061.09;5116253;28;20070;-54
2021/07/14 07:01:09;;;;;;;13.77;11.18;;;;;;;30.19;56.48;99072.75;5116279;28;20047;-54
2021/07/14 07:03:36;;;;;;;13.25;11.88;;;;;;;30.15;56.61;99064.16;5098624;28;20112;-54
2021/07/14 07:06:02;;;;;;;14.52;11.50;;;;;;;30.14;56.59;99070.59;5116281;28;20517;-54
2021/07/14 07:08:28;;;;;;;15.70;12.40;;;;;;;30.07;56.57;99066.13;5115341;28;20464;-54
2021/07/14 07:10:54;;;;;;;13.13;11.15;;;;;;;30.00;56.59;99066.84;5116515;28;20040;-54
2021/07/14 07:13:20;;;;;;;12.45;11.25;;;;;;;29.92;56.09;99064.19;5115257;28;20047;-54
2021/07/14 07:15:46;;;;;;;13.77;10.65;;;;;;;29.92;56.22;99060.66;5116451;28;20047;-54
2021/07/14 07:18:11;;;;;;;11.43;10.10;;;;;;;30.06;56.77;99059.84;5116377;28;20054;-54
2021/07/14 07:20:38;;;;;;;11.77;10.48;;;;;;;30.32;55.55;99066.75;5115287;28;20040;-54
2021/07/14 07:23:04;;;;;;;14.43;10.80;;;;;;;30.38;55.25;99068.72;5116145;28;20051;-54
2021/07/14 07:25:29;;;;;;;14.05;11.10;;;;;;;30.40;54.44;99081.03;5116316;28;20047;-54
2021/07/14 07:27:58;;;;;;;20.70;13.30;;;;;;;30.36;54.08;99076.19;5116099;28;20101;-54
2021/07/14 07:30:24;;;;;;;11.90;10.70;;;;;;;30.47;54.36;99086.53;5098533;28;20040;-54
2021/07/14 07:32:50;;;;;;;12.63;10.20;;;;;;;30.49;53.94;99082.63;5116036;28;20051;-54
2021/07/14 07:35:16;;;;;;;11.68;10.38;;;;;;;30.53;54.12;99085.78;5119866;28;20103;-54
2021/07/14 07:37:42;;;;;;;15.75;10.88;;;;;;;30.67;54.50;99089.53;5120410;28;20043;-54
2021/07/14 07:40:08;;;;;;;12.07;10.82;;;;;;;30.84;54.27;99082.13;5119937;28;20048;-54
2021/07/14 07:42:34;;;;;;;15.95;10.40;;;;;;;31.10;54.12;99074.38;5119702;28;20540;-54
2021/07/14 07:45:00;;;;;;;19.58;9.63;;;;;;;31.40;52.75;99072.50;5120002;28;20130;-54
2021/07/14 07:47:25;;;;;;;9.65;8.65;;;;;;;31.59;50.22;99075.59;5119928;28;20447;-54
2021/07/14 07:49:51;;;;;;;15.00;9.82;;;;;;;31.73;49.24;99073.91;5119886;28;20461;-54
2021/07/14 07:52:22;;;;;;;17.00;9.00;;;;;;;31.87;49.80;99092.78;5119545;28;20043;-54
2021/07/14 07:54:48;;;;;;;18.02;10.02;;;;;;;31.85;48.96;99073.19;5120115;28;20050;-54
2021/07/14 07:57:14;;;;;;;10.35;9.07;;;;;;;32.05;48.94;99091.53;5118888;28;20043;-54
2021/07/14 07:59:40;;;;;;;10.98;9.80;;;;;;;32.10;49.21;99086.34;5118637;28;20356;-54
2021/07/14 08:02:06;;;;;;;11.13;8.82;;;;;;;32.27;48.61;99085.06;5119350;28;20074;-54
2021/07/14 08:04:31;;;;;;;9.00;7.75;;;;;;;32.39;47.22;99098.88;5119181;28;20112;-54
2021/07/14 08:06:58;;;;;;;11.45;8.35;;;;;;;32.51;47.01;99105.50;5119325;28;20126;-54
2021/07/14 08:09:23;;;;;;;13.68;8.85;;;;;;;32.63;48.03;99118.47;5119455;28;20043;-54
2021/07/14 08:11:50;;;;;;;13.85;8.07;;;;;;;32.73;47.32;99113.56;5119459;28;20085;-54
2021/07/14 08:14:16;;;;;;;9.32;8.30;;;;;;;32.75;47.63;99116.91;5119411;28;20048;-55
2021/07/14 08:16:43;;;;;;;9.88;7.80;;;;;;;32.91;48.29;99115.75;5119375;28;20130;-54
2021/07/14 08:19:09;;;;;;;12.60;9.10;;;;;;;33.11;47.65;99126.75;5119225;28;20054;-55
2021/07/14 08:21:35;;;;;;;12.52;8.75;;;;;;;33.13;47.94;99130.94;5119033;28;20039;-54
2021/07/14 08:24:00;;;;;;;19.95;9.95;;;;;;;33.14;47.97;99123.63;5119477;28;20039;-54
2021/07/14 08:26:26;;;;;;;12.05;8.95;;;;;;;33.29;48.09;99154.19;5119193;27;20056;-55
2021/07/14 08:28:52;;;;;;;11.75;9.10;;;;;;;33.27;47.73;99165.22;5118742;28;20047;-55
2021/07/14 08:31:18;;;;;;;12.10;8.27;;;;;;;33.38;47.80;99180.13;5119082;28;20040;-55
2021/07/14 08:33:44;;;;;;;15.40;9.65;;;;;;;33.45;46.89;99169.31;5118158;28;20047;-55
2021/07/14 08:36:10;;;;;;;19.38;11.25;;;;;;;33.27;47.23;99167.94;5118982;28;20390;-55
2021/07/14 08:38:35;;;;;;;18.75;10.90;;;;;;;33.18;47.04;99193.59;5118844;28;20047;-56
2021/07/14 08:41:01;;;;;;;25.30;9.95;;;;;;;32.90;47.58;99198.16;5118890;28;20407;-55
2021/07/14 08:43:29;;;;;;;10.60;8.25;;;;;;;32.90;48.00;99212.53;5100807;28;20039;-55
2021/07/14 08:45:56;;;;;;;16.90;8.85;;;;;;;33.04;47.37;99224.34;5117821;28;20040;-55
2021/07/14 08:48:22;;;;;;;14.43;8.05;;;;;;;33.07;46.33;99237.50;5118587;28;20043;-55
2021/07/14 08:50:48;;;;;;;12.52;7.13;;;;;;;33.00;47.03;99231.22;5117885;28;20085;-55
2021/07/14 08:53:16;;;;;;;12.23;6.05;;;;;;;32.95;45.52;99237.16;5117470;28;20059;-55
2021/07/14 08:55:43;;;;;;;14.68;5.80;;;;;;;32.90;46.35;99247.78;5118655;27;20039;-55
2021/07/14 08:58:13;;;;;;;8.95;5.68;;;;;;;33.03;46.03;99253.34;5117604;28;20055;-55
2021/07/14 09:00:39;;;;;;;9.95;5.60;;;;;;;33.10;46.61;99256.09;5118147;28;20431;-55
2021/07/14 09:03:05;;;;;;;9.23;5.25;;;;;;;32.99;45.31;99246.66;5117300;28;20135;-55
2021/07/14 09:05:31;;;;;;;13.18;5.32;;;;;;;33.00;45.80;99247.47;5118022;28;20043;-55
2021/07/14 09:07:57;;;;;;;12.88;5.20;;;;;;;33.07;46.26;99242.09;5118327;28;20189;-55
2021/07/14 09:10:23;;;;;;;10.35;5.32;;;;;;;33.12;46.00;99229.63;5118083;27;20043;-55
2021/07/14 09:12:50;;;;;;;13.23;5.80;;;;;;;33.13;46.29;99227.75;5100618;28;20043;-55
2021/07/14 09:15:17;;;;;;;12.52;6.43;;;;;;;33.27;44.80;99235.78;5116946;28;20051;-55
2021/07/14 09:17:47;;;;;;;16.13;6.18;;;;;;;33.36;44.02;99239.16;5117974;28;20039;-55
2021/07/14 09:20:23;;;;;;;9.75;4.75;;;;;;;33.42;44.89;99243.81;5117784;28;20047;-55
2021/07/14 09:23:09;;;;;;;11.27;5.18;;;;;;;33.44;42.46;99251.72;5118158;28;20052;-55
2021/07/14 09:25:45;;;;;;;9.70;4.75;;;;;;;33.41;44.40;99250.28;5117747;28;20105;-55
2021/07/14 09:28:12;;;;;;;17.38;4.22;;;;;;;33.45;43.79;99240.69;5117049;28;20059;-55
2021/07/14 09:30:39;;;;;;;12.10;4.50;;;;;;;33.60;43.76;99242.47;5117922;28;20047;-55
2021/07/14 09:33:09;;;;;;;10.95;4.68;;;;;;;33.56;43.88;99235.75;5117550;28;20052;-55
2021/07/14 09:35:42;;;;;;;9.57;4.68;;;;;;;33.69;43.51;99235.81;5117924;28;20042;-55
2021/07/14 09:38:10;;;;;;;9.50;4.38;;;;;;;33.73;43.61;99239.81;5117507;28;20043;-55
2021/07/14 09:40:37;;;;;;;9.40;4.25;;;;;;;33.68;44.02;99253.16;5117442;28;20095;-55
2021/07/14 09:43:04;;;;;;;9.48;4.10;;;;;;;33.68;44.22;99254.00;5100064;28;20047;-55
2021/07/14 09:45:45;;;;;;;9.30;4.40;;;;;;;33.65;43.71;99269.84;5116429;28;20051;-55
2021/07/14 09:48:13;;;;;;;7.68;3.85;;;;;;;33.72;44.67;99289.72;5117531;28;20055;-55
2021/07/14 09:50:48;;;;;;;10.40;4.10;;;;;;;33.55;41.33;99293.81;5116429;28;20467;-55
2021/07/14 09:53:16;;;;;;;10.70;3.53;;;;;;;33.40;42.64;99296.59;5117448;28;20051;-55
2021/07/14 09:55:42;;;;;;;7.05;3.10;;;;;;;33.23;42.53;99296.88;5117134;28;20047;-54
2021/07/14 09:58:13;;;;;;;9.07;2.65;;;;;;;33.24;42.76;99300.44;5117627;28;20043;-54
2021/07/14 10:00:49;;;;;;;4.43;2.30;;;;;;;33.26;41.89;99296.50;5117101;28;20051;-54
2021/07/14 10:03:34;;;;;;;7.97;2.17;;;;;;;33.20;41.80;99293.75;5117038;28;20446;-54
2021/07/14 10:06:11;;;;;;;5.65;2.28;;;;;;;33.15;42.45;99313.31;5117267;28;20051;-54
2021/07/14 10:08:41;;;;;;;9.07;2.70;;;;;;;33.04;42.17;99327.41;5117479;28;20104;-54
2021/07/14 10:11:11;;;;;;;5.60;2.58;;;;;;;32.94;41.50;99329.56;5117728;28;20047;-54
2021/07/14 10:13:36;;;;;;;6.60;2.45;;;;;;;32.78;41.92;99345.06;5116263;28;20353;-54
2021/07/14 10:16:03;;;;;;;6.00;1.80;;;;;;;32.84;42.42;99343.47;5116227;28;20059;-54
2021/07/14 10:18:31;;;;;;;5.70;2.35;;;;;;;32.95;42.80;99359.19;5117040;28;20035;-55
2021/07/14 10:20:56;;;;;;;8.02;2.50;;;;;;;32.95;41.82;99372.75;5116168;28;20055;-55
2021/07/14 10:23:22;;;;;;;7.80;1.90;;;;;;;32.79;41.67;99362.16;5117312;28;20039;-54
2021/07/14 10:25:48;;;;;;;7.72;2.00;;;;;;;32.73;40.94;99363.78;5116941;28;20444;-54
2021/07/14 10:28:16;;;;;;;11.35;2.00;;;;;;;32.47;41.25;99337.25;5115817;28;20361;-54
2021/07/14 10:30:42;;;;;;;6.00;2.13;;;;;;;32.58;40.55;99373.81;5116599;28;20048;-54
2021/07/14 10:33:11;;;;;;;8.73;2.13;;;;;;;32.42;40.33;99360.47;5116884;28;20112;-55
2021/07/14 10:35:41;;;;;;;5.32;1.45;;;;;;;32.41;39.32;99380.47;5115634;28;20047;-54
2021/07/14 10:38:17;;;;;;;2.70;1.00;;;;;;;32.31;38.67;99373.50;5116621;28;20047;-54
2021/07/14 10:40:47;;;;;;;5.13;0.95;;;;;;;32.19;38.61;99366.88;5116820;28;20493;-54
2021/07/14 10:43:14;;;;;;;6.90;1.98;;;;;;;32.06;39.85;99372.09;5116510;28;20043;-54
2021/07/14 10:45:40;;;;;;;4.10;0.90;;;;;;;32.01;40.14;99366.41;5116741;28;20349;-54
2021/07/14 10:48:06;;;;;;;5.70;1.02;;;;;;;31.95;40.27;99359.03;5116710;28;20048;-54
2021/07/14 10:50:32;;;;;;;2.92;1.00;;;;;;;31.94;40.34;99360.88;5115544;28;20039;-54
2021/07/14 10:52:58;;;;;;;2.35;0.88;;;;;;;31.96;41.21;99366.13;5116519;28;20097;-54
2021/07/14 10:55:27;;;;;;;6.72;0.95;;;;;;;31.88;40.61;99345.41;5115564;28;20054;-54
2021/07/14 10:57:54;;;;;;;4.30;1.17;;;;;;;31.99;40.99;99363.88;5115838;28;20052;-54
2021/07/14 11:00:20;;;;;;;3.55;1.00;;;;;;;32.04;40.12;99353.31;5116533;28;20047;-54
2021/07/14 11:02:47;;;;;;;5.18;1.38;;;;;;;31.99;40.41;99344.09;5116108;28;20090;-54
2021/07/14 11:05:14;;;;;;;3.88;1.15;;;;;;;31.77;39.94;99303.38;5115563;28;20059;-54
2021/07/14 11:07:44;;;;;;;7.45;0.88;;;;;;;31.86;39.70;99317.66;5116224;28;20452;-54
2021/07/14 11:10:31;;;;;;;3.35;0.80;;;;;;;31.69;39.16;99303.47;5119625;28;20043;-54
2021/07/14 11:12:58;;;;;;;4.43;0.70;;;;;;;31.58;40.42;99293.09;5120341;28;20092;-54
2021/07/14 11:15:30;;;;;;;4.57;0.75;;;;;;;31.42;40.25;99277.88;5085615;28;20074;-54
2021/07/14 11:17:56;;;;;;;3.95;0.47;;;;;;;31.25;40.43;99247.44;5120208;28;20322;-54
2021/07/14 11:20:22;;;;;;;5.43;1.05;;;;;;;31.05;40.11;99247.13;5102627;28;20066;-54
2021/07/14 11:22:49;;;;;;;6.70;1.15;;;;;;;31.10;41.22;99271.78;5120722;28;20350;-54
2021/07/14 11:25:24;;;;;;;3.35;0.90;;;;;;;31.20;41.95;99301.25;5120372;28;20055;-54
2021/07/14 11:27:54;;;;;;;5.55;1.13;;;;;;;31.26;41.42;99291.53;5120093;28;20383;-54
2021/07/14 11:30:23;;;;;;;11.15;2.00;;;;;;;31.11;40.85;99289.66;5120065;28;20044;-54